createdAt,value
2022-12-13T00:01:27.436Z,0.46
2022-12-13T00:03:55.456Z,0.35
2022-12-13T00:06:22.380Z,0.39
2022-12-13T00:08:49.247Z,0.49
2022-12-13T00:11:16.610Z,0.45
2022-12-13T00:13:43.886Z,0.42
2022-12-13T00:16:19.920Z,0.32
2022-12-13T00:18:49.860Z,0.40
2022-12-13T00:21:18.959Z,0.20
2022-12-13T00:23:46.747Z,0.24
2022-12-13T00:26:19.233Z,0.28
2022-12-13T00:28:49.207Z,0.31
2022-12-13T00:34:05.750Z,0.40
2022-12-13T00:36:33.162Z,0.29
2022-12-13T00:39:02.919Z,0.29
2022-12-13T00:41:33.379Z,0.33
2022-12-13T00:44:01.155Z,0.29
2022-12-13T00:46:28.838Z,0.31
2022-12-13T00:48:59.827Z,0.39
2022-12-13T00:51:28.762Z,0.43
2022-12-13T00:53:55.939Z,0.48
2022-12-13T00:56:25.657Z,0.55
2022-12-13T00:58:53.358Z,0.46
2022-12-13T01:01:24.560Z,0.42
2022-12-13T01:03:53.057Z,0.48
2022-12-13T01:06:24.101Z,0.46
2022-12-13T01:08:53.582Z,0.50
2022-12-13T01:11:20.500Z,0.42
2022-12-13T01:13:47.535Z,0.34
2022-12-13T01:16:14.769Z,0.29
2022-12-13T01:18:41.974Z,0.39
2022-12-13T01:21:15.125Z,0.27
2022-12-13T01:23:42.695Z,0.25
2022-12-13T01:26:19.818Z,0.15
2022-12-13T01:28:47.635Z,0.17
2022-12-13T01:31:17.852Z,0.08
2022-12-13T01:33:44.707Z,0.18
2022-12-13T01:36:28.000Z,0.07
2022-12-13T01:38:58.681Z,-0.14
2022-12-13T01:41:27.234Z,0.14
2022-12-13T01:44:03.756Z,0.18
2022-12-13T01:46:33.350Z,0.25
2022-12-13T01:49:19.755Z,0.28
2022-12-13T01:52:00.069Z,0.34
2022-12-13T01:54:34.583Z,0.38
2022-12-13T01:57:04.576Z,0.44
2022-12-13T01:59:32.486Z,0.41
2022-12-13T02:02:01.006Z,0.44
2022-12-13T02:04:44.223Z,0.39
2022-12-13T02:07:22.957Z,0.41
2022-12-13T02:09:56.800Z,0.42
2022-12-13T02:12:29.812Z,0.40
2022-12-13T02:15:01.435Z,0.42
2022-12-13T02:17:53.368Z,0.38
2022-12-13T02:20:47.525Z,0.42
2022-12-13T02:23:32.696Z,0.38
2022-12-13T02:26:37.020Z,0.25
2022-12-13T02:29:10.076Z,0.29
2022-12-13T02:32:00.629Z,0.30
2022-12-13T02:34:34.053Z,0.28
2022-12-13T02:37:17.831Z,0.06
2022-12-13T02:39:48.831Z,0.02
2022-12-13T02:42:24.360Z,0.25
2022-12-13T02:44:57.424Z,0.33
2022-12-13T02:47:27.292Z,0.37
2022-12-13T02:49:59.217Z,0.43
2022-12-13T02:52:29.219Z,0.47
2022-12-13T02:54:57.260Z,0.48
2022-12-13T02:57:33.399Z,0.45
2022-12-13T03:00:06.456Z,0.46
2022-12-13T03:02:57.751Z,0.39
2022-12-13T03:06:03.720Z,0.42
2022-12-13T03:08:45.489Z,0.47
2022-12-13T03:11:16.490Z,0.48
2022-12-13T03:13:56.891Z,0.49
2022-12-13T03:16:34.739Z,0.46
2022-12-13T03:19:04.461Z,0.44
2022-12-13T03:21:43.934Z,0.38
2022-12-13T03:24:20.455Z,0.25
2022-12-13T03:26:51.799Z,0.15
2022-12-13T03:29:23.912Z,0.08
2022-12-13T03:31:52.294Z,0.01
2022-12-13T03:34:22.898Z,-0.08
2022-12-13T03:36:51.827Z,-0.15
2022-12-13T03:39:19.335Z,-0.23
2022-12-13T03:41:46.257Z,-0.34
2022-12-13T03:44:13.834Z,-0.42
2022-12-13T03:46:41.170Z,-0.49
2022-12-13T03:49:10.443Z,-0.57
2022-12-13T03:51:40.736Z,-0.64
2022-12-13T03:54:07.456Z,-0.67
2022-12-13T03:56:34.251Z,-0.71
2022-12-13T03:59:02.428Z,-0.74
2022-12-13T04:01:29.579Z,-0.76
2022-12-13T04:03:56.532Z,-0.81
2022-12-13T04:06:27.479Z,-0.83
2022-12-13T04:08:58.206Z,-0.85
2022-12-13T04:11:43.592Z,-0.87
2022-12-13T04:14:11.047Z,-0.93
2022-12-13T04:16:37.864Z,-0.97
2022-12-13T04:19:04.758Z,-0.99
2022-12-13T04:21:31.669Z,-1.04
2022-12-13T04:24:00.900Z,-1.06
2022-12-13T04:26:28.552Z,-1.09
2022-12-13T04:28:55.539Z,-1.11
2022-12-13T04:31:22.928Z,-1.12
2022-12-13T04:33:51.743Z,-1.16
2022-12-13T04:36:32.010Z,-1.18
2022-12-13T04:39:01.083Z,-1.19
2022-12-13T04:41:34.265Z,-1.21
2022-12-13T04:44:01.743Z,-1.25
2022-12-13T04:46:28.614Z,-1.26
2022-12-13T04:48:57.833Z,-1.29
2022-12-13T04:51:24.786Z,-1.30
2022-12-13T04:53:52.657Z,-1.34
2022-12-13T04:56:20.047Z,-1.36
2022-12-13T04:58:46.974Z,-1.36
2022-12-13T05:02:34.178Z,-1.46
2022-12-13T05:05:01.537Z,-1.51
2022-12-13T05:07:30.476Z,-1.53
2022-12-13T05:09:57.220Z,-1.56
2022-12-13T05:12:23.971Z,-1.58
2022-12-13T05:14:53.872Z,-1.61
2022-12-13T05:17:21.021Z,-1.62
2022-12-13T05:19:48.130Z,-1.58
2022-12-13T05:22:20.706Z,-1.59
2022-12-13T05:24:48.202Z,-1.64
2022-12-13T05:27:25.808Z,-1.63
2022-12-13T05:30:05.271Z,-1.65
2022-12-13T05:32:44.144Z,-1.68
2022-12-13T05:35:22.532Z,-1.71
2022-12-13T05:37:55.379Z,-1.70
2022-12-13T05:40:23.399Z,-1.72
2022-12-13T05:42:50.103Z,-1.71
2022-12-13T05:45:19.663Z,-1.72
2022-12-13T05:47:47.254Z,-1.73
2022-12-13T05:50:15.973Z,-1.73
2022-12-13T05:52:45.300Z,-1.74
2022-12-13T05:55:12.808Z,-1.77
2022-12-13T05:57:39.795Z,-1.79
2022-12-13T06:00:29.955Z,-1.82
2022-12-13T06:02:56.631Z,-1.81
2022-12-13T06:05:27.513Z,-1.82
2022-12-13T06:07:57.496Z,-1.83
2022-12-13T06:10:34.073Z,-1.80
2022-12-13T06:13:22.165Z,-1.81
2022-12-13T06:15:52.778Z,-1.82
2022-12-13T06:18:30.404Z,-1.83
2022-12-13T06:20:59.219Z,-1.85
2022-12-13T06:23:26.617Z,-1.89
2022-12-13T06:25:54.665Z,-1.88
2022-12-13T06:28:21.525Z,-1.90
2022-12-13T06:30:48.840Z,-1.89
2022-12-13T06:33:15.833Z,-1.92
2022-12-13T06:35:52.635Z,-1.91
2022-12-13T06:38:22.033Z,-1.92
2022-12-13T06:41:08.566Z,-1.97
2022-12-13T06:43:35.824Z,-1.92
2022-12-13T06:46:06.782Z,-1.90
2022-12-13T06:48:36.419Z,-1.91
2022-12-13T06:51:08.489Z,-1.90
2022-12-13T06:53:41.387Z,-1.91
2022-12-13T06:56:14.249Z,-1.82
2022-12-13T06:58:42.095Z,-1.72
2022-12-13T07:01:14.965Z,-1.62
2022-12-13T07:03:42.297Z,-1.65
2022-12-13T07:06:14.545Z,-1.32
2022-12-13T07:08:43.065Z,-1.08
2022-12-13T07:11:15.692Z,-0.84
2022-12-13T07:13:44.429Z,-0.63
2022-12-13T07:16:13.032Z,-0.44
2022-12-13T07:18:40.009Z,-0.27
2022-12-13T07:21:08.731Z,-0.16
2022-12-13T07:23:54.723Z,-0.13
2022-12-13T07:26:24.373Z,-0.14
2022-12-13T07:28:55.309Z,-0.13
2022-12-13T07:31:24.240Z,-0.06
2022-12-13T07:33:51.727Z,-0.06
2022-12-13T07:36:21.402Z,-0.09
2022-12-13T07:38:52.791Z,-0.14
2022-12-13T07:41:23.014Z,-0.13
2022-12-13T07:43:55.116Z,-0.11
2022-12-13T07:46:32.314Z,-0.03
2022-12-13T07:49:04.102Z,-0.04
2022-12-13T07:51:33.110Z,0.02
2022-12-13T07:54:00.916Z,0.11
2022-12-13T07:56:33.948Z,0.17
2022-12-13T07:59:00.690Z,0.21
2022-12-13T08:01:28.604Z,0.32
2022-12-13T08:03:56.713Z,0.44
2022-12-13T08:06:23.515Z,0.67
2022-12-13T08:08:51.410Z,0.81
2022-12-13T08:11:21.028Z,0.97
2022-12-13T08:13:47.895Z,1.04
2022-12-13T08:16:26.002Z,1.12
2022-12-13T08:19:02.796Z,1.30
2022-12-13T08:21:55.681Z,1.50
2022-12-13T08:24:30.744Z,1.61
2022-12-13T08:27:02.916Z,1.68
2022-12-13T08:29:33.328Z,1.85
2022-12-13T08:32:05.465Z,1.94
2022-12-13T08:34:32.207Z,1.98
2022-12-13T08:37:01.795Z,1.90
2022-12-13T08:39:35.523Z,1.71
2022-12-13T08:42:16.286Z,1.56
2022-12-13T08:44:50.379Z,1.37
2022-12-13T08:47:23.097Z,1.14
2022-12-13T08:50:01.513Z,0.93
2022-12-13T08:52:40.436Z,0.81
2022-12-13T08:55:10.770Z,0.70
2022-12-13T08:57:39.590Z,0.64
2022-12-13T09:00:08.092Z,0.58
2022-12-13T09:02:38.173Z,0.59
2022-12-13T09:05:08.027Z,0.52
2022-12-13T09:07:36.400Z,0.51
2022-12-13T09:10:25.613Z,0.52
2022-12-13T09:12:52.085Z,0.53
2022-12-13T09:15:33.732Z,0.55
2022-12-13T09:18:04.920Z,0.57
2022-12-13T09:20:41.245Z,0.61
2022-12-13T09:23:13.798Z,0.56
2022-12-13T09:26:05.912Z,0.43
2022-12-13T09:28:34.793Z,0.37
2022-12-13T09:31:01.979Z,0.38
2022-12-13T09:33:30.073Z,0.40
2022-12-13T09:35:58.330Z,0.45
2022-12-13T09:38:28.343Z,0.54
2022-12-13T09:40:58.962Z,0.61
2022-12-13T09:43:32.649Z,0.66
2022-12-13T09:46:04.315Z,0.72
2022-12-13T09:48:40.934Z,0.81
2022-12-13T09:51:27.277Z,0.84
2022-12-13T09:53:57.527Z,0.89
2022-12-13T09:56:27.627Z,0.93
2022-12-13T09:58:56.631Z,0.97
2022-12-13T10:01:24.768Z,0.99
2022-12-13T10:03:54.153Z,1.01
2022-12-13T10:06:24.136Z,1.02
2022-12-13T10:08:57.361Z,1.07
2022-12-13T10:11:31.284Z,1.08
2022-12-13T10:14:37.450Z,1.02
2022-12-13T10:17:08.751Z,1.07
2022-12-13T10:19:47.260Z,1.10
2022-12-13T10:22:19.295Z,1.14
2022-12-13T10:24:56.629Z,1.20
2022-12-13T10:27:45.883Z,1.23
2022-12-13T10:30:28.875Z,1.26
2022-12-13T10:32:59.805Z,1.25
2022-12-13T10:35:30.808Z,1.40
2022-12-13T10:38:04.629Z,1.59
2022-12-13T10:40:33.283Z,1.71
2022-12-13T10:43:15.471Z,1.67
2022-12-13T10:45:44.488Z,1.59
2022-12-13T10:48:39.506Z,1.46
2022-12-13T10:51:12.367Z,1.52
2022-12-13T10:53:53.683Z,1.54
2022-12-13T10:56:24.051Z,1.60
2022-12-13T10:59:14.987Z,1.65
2022-12-13T11:01:44.563Z,1.72
2022-12-13T11:04:29.829Z,1.67
2022-12-13T11:06:58.894Z,1.75
2022-12-13T11:09:30.202Z,1.76
2022-12-13T11:12:18.749Z,1.64
2022-12-13T11:15:07.513Z,1.50
2022-12-13T11:17:47.212Z,1.55
2022-12-13T11:20:29.250Z,1.50
2022-12-13T11:23:06.787Z,1.38
2022-12-13T11:25:44.169Z,1.28
2022-12-13T11:28:28.029Z,1.18
2022-12-13T11:31:32.162Z,1.14
2022-12-13T11:34:20.353Z,1.26
2022-12-13T11:37:04.593Z,1.29
2022-12-13T11:39:38.786Z,1.25
2022-12-13T11:42:26.418Z,1.27
2022-12-13T11:45:22.913Z,1.40
2022-12-13T11:48:09.477Z,1.42
2022-12-13T11:50:40.625Z,1.50
2022-12-13T11:53:13.824Z,1.47
2022-12-13T11:55:47.334Z,1.48
2022-12-13T12:01:39.169Z,1.60
2022-12-13T12:04:24.556Z,1.63
2022-12-13T12:07:33.606Z,1.53
2022-12-13T12:10:21.895Z,1.41
2022-12-13T12:12:56.888Z,1.37
2022-12-13T12:15:30.229Z,1.33
2022-12-13T12:17:57.772Z,1.27
2022-12-13T12:20:41.718Z,1.23
2022-12-13T12:23:37.401Z,1.21
2022-12-13T12:26:18.961Z,1.22
2022-12-13T12:28:51.824Z,1.24
2022-12-13T12:31:50.711Z,1.16
2022-12-13T12:34:30.100Z,1.18
2022-12-13T12:37:08.515Z,1.13
2022-12-13T12:40:08.958Z,1.06
2022-12-13T12:46:06.795Z,0.96
2022-12-13T12:49:14.287Z,0.93
2022-12-13T12:51:49.752Z,0.96
2022-12-13T12:54:42.349Z,1.01
2022-12-13T12:57:34.165Z,0.94
2022-12-13T13:00:21.853Z,1.00
2022-12-13T13:03:01.446Z,1.05
2022-12-13T13:05:40.154Z,1.04
2022-12-13T13:08:22.570Z,1.03
2022-12-13T13:10:50.578Z,1.03
2022-12-13T13:13:46.534Z,0.98
2022-12-13T13:16:32.985Z,0.99
2022-12-13T13:19:04.027Z,1.11
2022-12-13T13:21:49.617Z,1.08
2022-12-13T13:24:20.431Z,1.14
2022-12-13T13:26:50.403Z,1.13
2022-12-13T13:29:29.957Z,1.08
2022-12-13T13:32:11.152Z,1.08
2022-12-13T13:34:44.154Z,0.98
2022-12-13T13:37:45.121Z,0.91
2022-12-13T13:40:30.826Z,0.90
2022-12-13T13:43:12.685Z,0.82
2022-12-13T13:45:57.411Z,0.76
2022-12-13T13:48:37.000Z,0.79
2022-12-13T13:51:12.884Z,0.77
2022-12-13T13:54:11.790Z,0.73
2022-12-13T13:57:16.182Z,0.65
2022-12-13T14:00:20.684Z,0.65
2022-12-13T14:03:02.903Z,0.69
2022-12-13T14:06:08.218Z,0.56
2022-12-13T14:08:49.884Z,0.58
2022-12-13T14:11:48.923Z,0.56
2022-12-13T14:14:53.166Z,0.55
2022-12-13T14:17:56.556Z,0.63
2022-12-13T14:20:39.399Z,0.52
2022-12-13T14:23:30.029Z,0.49
2022-12-13T14:26:06.462Z,0.49
2022-12-13T14:28:39.497Z,0.47
2022-12-13T14:31:22.350Z,0.39
2022-12-13T14:33:51.980Z,0.42
2022-12-13T14:36:29.166Z,0.43
2022-12-13T14:39:05.255Z,0.41
2022-12-13T14:41:33.024Z,0.43
2022-12-13T14:44:17.355Z,0.37
2022-12-13T14:46:56.627Z,0.35
2022-12-13T14:49:26.228Z,0.35
2022-12-13T14:52:26.318Z,0.27
2022-12-13T14:54:58.812Z,0.26
2022-12-13T14:57:28.763Z,0.25
2022-12-13T14:59:57.962Z,0.22
2022-12-13T15:02:31.084Z,0.24
2022-12-13T15:05:05.612Z,0.25
2022-12-13T15:07:41.488Z,0.24
2022-12-13T15:10:28.090Z,0.14
2022-12-13T15:12:55.639Z,0.15
2022-12-13T15:15:36.183Z,0.13
2022-12-13T15:18:23.708Z,0.12
2022-12-13T15:20:58.110Z,0.16
2022-12-13T15:23:48.567Z,0.16
2022-12-13T15:26:27.686Z,0.12
2022-12-13T15:28:59.447Z,0.09
2022-12-13T15:31:28.978Z,0.06
2022-12-13T15:34:28.828Z,0.03
2022-12-13T15:36:59.346Z,0.00
2022-12-13T15:39:28.774Z,-0.01
2022-12-13T15:41:57.198Z,0.00
2022-12-13T15:44:32.768Z,-0.08
2022-12-13T15:47:28.231Z,-0.17
2022-12-13T15:50:01.879Z,-0.18
2022-12-13T15:52:38.492Z,-0.20
2022-12-13T15:55:11.122Z,-0.21
2022-12-13T15:57:57.217Z,-0.28
2022-12-13T16:00:30.652Z,-0.27
2022-12-13T16:03:14.776Z,-0.30
2022-12-13T16:05:50.189Z,-0.28
2022-12-13T16:08:28.895Z,-0.28
2022-12-13T16:10:56.407Z,-0.28
2022-12-13T16:13:30.625Z,-0.33
2022-12-13T16:16:09.573Z,-0.33
2022-12-13T16:19:07.211Z,-0.38
2022-12-13T16:21:34.039Z,-0.40
2022-12-13T16:24:00.841Z,-0.45
2022-12-13T16:26:28.826Z,-0.49
2022-12-13T16:28:58.841Z,-0.49
2022-12-13T16:31:28.435Z,-0.48
2022-12-13T16:33:55.384Z,-0.46
2022-12-13T16:36:22.296Z,-0.45
2022-12-13T16:38:49.105Z,-0.50
2022-12-13T16:41:16.454Z,-0.57
2022-12-13T16:43:56.810Z,-0.62
2022-12-13T16:47:12.885Z,-0.64
2022-12-13T16:49:24.784Z,-0.74
2022-12-13T16:51:52.239Z,-0.72
2022-12-13T16:54:23.804Z,-0.69
2022-12-13T16:56:51.770Z,-0.70
2022-12-13T16:59:22.607Z,-0.75
2022-12-13T17:01:51.086Z,-0.74
2022-12-13T17:04:21.554Z,-0.76
2022-12-13T17:06:55.120Z,-0.79
2022-12-13T17:09:22.828Z,-0.76
2022-12-13T17:11:49.532Z,-0.82
2022-12-13T17:14:16.429Z,-0.88
2022-12-13T17:16:43.321Z,-0.87
2022-12-13T17:19:11.544Z,-0.92
2022-12-13T17:21:38.435Z,-0.97
2022-12-13T17:24:06.003Z,-0.99
2022-12-13T17:26:32.960Z,-1.03
2022-12-13T17:28:59.740Z,-1.07
2022-12-13T17:31:31.891Z,-1.05
2022-12-13T17:34:02.868Z,-1.02
2022-12-13T17:36:31.578Z,-1.00
2022-12-13T17:38:58.617Z,-1.05
2022-12-13T17:41:25.723Z,-1.09
2022-12-13T17:43:52.499Z,-1.14
2022-12-13T17:46:19.557Z,-1.17
2022-12-13T17:48:46.794Z,-1.21
2022-12-13T17:51:14.614Z,-1.18
2022-12-13T17:53:44.798Z,-1.23
2022-12-13T17:56:22.393Z,-1.22
2022-12-13T17:58:51.487Z,-1.26
2022-12-13T18:01:20.961Z,-1.30
2022-12-13T18:03:51.315Z,-1.32
2022-12-13T18:06:18.520Z,-1.34
2022-12-13T18:08:46.734Z,-1.44
2022-12-13T18:11:33.668Z,-1.45
2022-12-13T18:14:02.454Z,-1.47
2022-12-13T18:16:36.465Z,-1.51
2022-12-13T18:19:11.288Z,-1.52
2022-12-13T18:21:38.126Z,-1.53
2022-12-13T18:24:09.219Z,-1.54
2022-12-13T18:26:36.023Z,-1.58
2022-12-13T18:29:04.308Z,-1.55
2022-12-13T18:31:31.568Z,-1.60
2022-12-13T18:33:58.809Z,-1.59
2022-12-13T18:36:26.681Z,-1.63
2022-12-13T18:38:53.739Z,-1.65
2022-12-13T18:41:28.382Z,-1.75
2022-12-13T18:44:08.035Z,-1.68
2022-12-13T18:46:36.447Z,-1.59
2022-12-13T18:49:03.835Z,-1.63
2022-12-13T18:51:30.802Z,-1.56
2022-12-13T18:53:57.698Z,-1.50
2022-12-13T18:56:26.543Z,-1.54
2022-12-13T18:58:53.687Z,-1.57
2022-12-13T19:01:22.989Z,-1.56
2022-12-13T19:03:51.037Z,-1.54
2022-12-13T19:06:24.025Z,-1.57
2022-12-13T19:08:56.419Z,-1.61
2022-12-13T19:11:27.550Z,-1.63
2022-12-13T19:13:54.899Z,-1.72
2022-12-13T19:16:23.563Z,-1.75
2022-12-13T19:18:51.194Z,-1.73
2022-12-13T19:21:20.255Z,-1.71
2022-12-13T19:23:56.851Z,-1.80
2022-12-13T19:26:28.763Z,-1.80
2022-12-13T19:28:57.371Z,-1.78
2022-12-13T19:31:30.483Z,-1.82
2022-12-13T19:33:58.660Z,-1.81
2022-12-13T19:36:25.603Z,-1.86
2022-12-13T19:38:55.388Z,-1.86
2022-12-13T19:41:22.118Z,-1.92
2022-12-13T19:43:52.945Z,-1.96
2022-12-13T19:46:20.221Z,-1.95
2022-12-13T19:48:47.526Z,-2.03
2022-12-13T19:51:15.797Z,-2.06
2022-12-13T19:53:42.665Z,-2.04
2022-12-13T19:56:18.630Z,-2.06
2022-12-13T19:58:46.907Z,-2.07
2022-12-13T20:01:13.961Z,-2.06
2022-12-13T20:03:42.991Z,-2.06
2022-12-13T20:06:13.431Z,-2.05
2022-12-13T20:08:40.828Z,-2.05
2022-12-13T20:11:10.294Z,-2.12
2022-12-13T20:13:38.161Z,-2.13
2022-12-13T20:16:05.501Z,-2.10
2022-12-13T20:18:33.051Z,-2.15
2022-12-13T20:21:12.952Z,-2.19
2022-12-13T20:23:41.100Z,-2.19
2022-12-13T20:26:11.496Z,-2.22
2022-12-13T20:28:38.393Z,-2.20
2022-12-13T20:31:13.836Z,-2.24
2022-12-13T20:33:42.347Z,-2.22
2022-12-13T20:36:27.384Z,-2.23
2022-12-13T20:38:56.369Z,-2.32
2022-12-13T20:41:24.675Z,-2.26
2022-12-13T20:43:53.223Z,-2.25
2022-12-13T20:46:21.038Z,-2.24
2022-12-13T20:48:49.199Z,-2.23
2022-12-13T20:51:19.901Z,-2.26
2022-12-13T20:53:48.585Z,-2.28
2022-12-13T20:56:20.651Z,-2.28
2022-12-13T20:58:47.454Z,-2.28
2022-12-13T21:01:28.299Z,-2.28
2022-12-13T21:03:58.413Z,-2.28
2022-12-13T21:06:25.707Z,-2.30
2022-12-13T21:08:52.842Z,-2.32
2022-12-13T21:11:25.168Z,-2.26
2022-12-13T21:14:22.382Z,-2.34
2022-12-13T21:16:52.915Z,-2.33
2022-12-13T21:19:25.125Z,-2.40
2022-12-13T21:21:53.563Z,-2.41
2022-12-13T21:24:21.788Z,-2.39
2022-12-13T21:26:48.911Z,-2.40
2022-12-13T21:29:18.832Z,-2.41
2022-12-13T21:31:49.958Z,-2.43
2022-12-13T21:34:21.581Z,-2.46
2022-12-13T21:36:50.851Z,-2.49
2022-12-13T21:39:20.033Z,-2.47
2022-12-13T21:41:46.793Z,-2.49
2022-12-13T21:44:16.618Z,-2.51
2022-12-13T21:49:30.902Z,-2.54
2022-12-13T21:51:58.697Z,-2.61
2022-12-13T21:54:27.972Z,-2.62
2022-12-13T21:57:13.393Z,-2.65
2022-12-13T21:59:41.203Z,-2.69
2022-12-13T22:02:19.289Z,-2.71
2022-12-13T22:04:54.206Z,-2.65
2022-12-13T22:07:24.099Z,-2.66
2022-12-13T22:09:52.499Z,-2.69
2022-12-13T22:12:31.220Z,-2.73
2022-12-13T22:14:57.967Z,-2.67
2022-12-13T22:17:34.583Z,-2.70
2022-12-13T22:20:02.645Z,-2.71
2022-12-13T22:22:31.258Z,-2.68
2022-12-13T22:24:58.016Z,-2.60
2022-12-13T22:27:25.720Z,-2.71
2022-12-13T22:29:54.033Z,-2.79
2022-12-13T22:32:21.739Z,-2.77
2022-12-13T22:34:48.664Z,-2.79
2022-12-13T22:37:20.424Z,-2.71
2022-12-13T22:39:47.226Z,-2.71
2022-12-13T22:42:15.737Z,-2.78
2022-12-13T22:44:42.811Z,-2.79
2022-12-13T22:47:12.061Z,-2.71
2022-12-13T22:49:38.869Z,-2.80
2022-12-13T22:52:05.757Z,-2.81
2022-12-13T22:54:32.604Z,-2.86
2022-12-13T22:56:59.460Z,-2.85
2022-12-13T22:59:26.217Z,-2.85
2022-12-13T23:02:01.399Z,-2.93
2022-12-13T23:04:29.159Z,-2.96
2022-12-13T23:06:55.921Z,-2.96
2022-12-13T23:09:22.644Z,-3.03
2022-12-13T23:12:07.811Z,-3.02
2022-12-13T23:14:35.104Z,-3.00
2022-12-13T23:17:04.833Z,-2.97
2022-12-13T23:19:41.687Z,-3.01
2022-12-13T23:22:18.644Z,-3.08
2022-12-13T23:24:45.341Z,-3.14
2022-12-13T23:27:12.238Z,-3.14
2022-12-13T23:29:40.369Z,-3.16
2022-12-13T23:32:07.229Z,-3.15
2022-12-13T23:34:33.997Z,-3.19
2022-12-13T23:37:00.686Z,-3.23
2022-12-13T23:39:27.535Z,-3.22
2022-12-13T23:41:55.161Z,-3.26
2022-12-13T23:44:22.721Z,-3.29
2022-12-13T23:46:49.601Z,-3.31
2022-12-13T23:49:16.498Z,-3.36
2022-12-13T23:51:43.554Z,-3.32
2022-12-13T23:54:16.445Z,-3.38
2022-12-13T23:56:47.030Z,-3.33
2022-12-13T23:59:13.783Z,-3.27
